Terminal Aerodrome Forecast
Issued by NWS Cleveland, OH

Home | Current Version | Previous Version | Graphics & Text | Print | Product List | Glossary On
Versions: 1 2 3 4 5 6 7 8 9 10 11 12 13 14 15 16 17
303
FTUS41 KCLE 170159 AAA
TAFTOL
TAF AMD
KTOL 170159Z 1702/1724 24006KT P6SM SCT020
     FM170600 24008KT P6SM BKN020
     FM171200 24006KT P6SM BKN035=

USA.gov is the U.S. government's official web portal to all federal, state and local government web resources and services.